Ct Longford — 9HYM9 — position and weather

sailwx.info

Track history (hours):
 
Tides and Currents Weather Stations Pressure Air Temp Water Temp Dewpoint Dewpoint Depression Visibility Wind Speed Wind Dir Waves Ship Positions

Ct Longford

Last reported at 2015-Jun-26 00:33 UTC. Time now 2015-Jul-07 21:55 UTC.
Position N 16°40' W 062°32'.
Warning: this ship's position is 11 days out of date.

Length 117 m; draft 5.9 m.

Type: Tanker. MMSI: 249706000.

Date/timePositionNaut miles runAvg speedWind from/ knotsBaromVisibWave heightAir tempDewpointWater temp
2015-Jun-26 00:33N 16°40' W 062°32'1111.0
2015-Jun-25 23:32N 16°30' W 062°26'1010.7
2015-Jun-25 22:33N 16°21' W 062°21'10211.3
2015-Jun-25 13:33N 14°54' W 061°26'1212.4
2015-Jun-25 12:33N 14°44' W 061°20'1212.0
2015-Jun-25 11:34N 14°33' W 061°13'1111.4
2015-Jun-25 10:33N 14°25' W 061°06'1111.4
2015-Jun-25 09:34N 14°17' W 060°57'1111.3
2015-Jun-25 08:33N 14°09' W 060°48'  
2015-Jun-22 19:34N 14°38' W 061°27'12210.1
2015-Jun-22 07:28N 16°26' W 062°27'9 9.9
2015-Jun-22 06:33N 16°34' W 062°31'  
Track history (hours):
 
Tides and Currents Weather Stations Pressure Air Temp Water Temp Dewpoint Dewpoint Depression Visibility Wind Speed Wind Dir Waves Ship Positions

Ct Longford

Last reported at 2015-Jun-26 00:33 UTC. Time now 2015-Jul-07 21:55 UTC.
Position N 16°40' W 062°32'.
Warning: this ship's position is 11 days out of date.

Length 117 m; draft 5.9 m.

Type: Tanker. MMSI: 249706000.

Date/timePositionNaut miles runAvg speedWind from/ knotsBaromVisibWave heightAir tempDewpointWater temp
2015-Jun-26 00:33N 16°40' W 062°32'1111.0
2015-Jun-25 23:32N 16°30' W 062°26'1010.7
2015-Jun-25 22:33N 16°21' W 062°21'10211.3
2015-Jun-25 13:33N 14°54' W 061°26'1212.4
2015-Jun-25 12:33N 14°44' W 061°20'1212.0
2015-Jun-25 11:34N 14°33' W 061°13'1111.4
2015-Jun-25 10:33N 14°25' W 061°06'1111.4
2015-Jun-25 09:34N 14°17' W 060°57'1111.3
2015-Jun-25 08:33N 14°09' W 060°48'  
2015-Jun-22 19:34N 14°38' W 061°27'12210.1
2015-Jun-22 07:28N 16°26' W 062°27'9 9.9
2015-Jun-22 06:33N 16°34' W 062°31'  

Dump ship's entire track history